createdAt,value
2018-08-11T00:00:52.871Z,46.72
2018-08-11T00:03:20.494Z,46.05
2018-08-11T00:05:48.152Z,46.76
2018-08-11T00:08:15.797Z,46.87
2018-08-11T00:10:43.453Z,45.99
2018-08-11T00:13:11.095Z,45.95
2018-08-11T00:15:38.728Z,46.26
2018-08-11T00:18:06.712Z,46.68
2018-08-11T00:20:34.391Z,46.84
2018-08-11T00:23:02.030Z,46.03
2018-08-11T00:25:29.674Z,46.81
2018-08-11T00:27:57.337Z,46.58
2018-08-11T00:30:24.995Z,46.05
2018-08-11T00:32:52.630Z,46.85
2018-08-11T00:35:20.247Z,46.22
2018-08-11T00:37:47.885Z,46.53
2018-08-11T00:40:18.979Z,46.04
2018-08-11T00:42:47.702Z,46.14
2018-08-11T00:45:15.849Z,47.02
2018-08-11T00:47:43.585Z,46.16
2018-08-11T00:50:13.040Z,46.72
2018-08-11T00:52:40.682Z,46.29
2018-08-11T00:55:08.968Z,46.24
2018-08-11T00:57:36.790Z,46.14
2018-08-11T01:00:05.960Z,46.24
2018-08-11T01:02:33.623Z,46.02
2018-08-11T01:05:01.267Z,46.11
2018-08-11T01:07:28.925Z,46.00
2018-08-11T01:09:56.553Z,46.82
2018-08-11T01:12:24.178Z,46.03
2018-08-11T01:14:51.836Z,46.78
2018-08-11T01:17:19.494Z,46.25
2018-08-11T01:19:47.126Z,45.98
2018-08-11T01:22:14.792Z,45.97
2018-08-11T01:24:42.433Z,46.23
2018-08-11T01:27:10.082Z,46.01
2018-08-11T01:29:37.718Z,46.11
2018-08-11T01:32:05.359Z,46.55
2018-08-11T01:34:33.010Z,45.92
2018-08-11T01:37:00.637Z,45.93
2018-08-11T01:39:28.302Z,45.89
2018-08-11T01:41:55.942Z,46.05
2018-08-11T01:44:23.639Z,46.76
2018-08-11T01:46:51.240Z,46.19
2018-08-11T01:49:18.863Z,45.95
2018-08-11T01:51:46.494Z,46.74
2018-08-11T01:54:14.212Z,46.74
2018-08-11T01:56:41.878Z,46.71
2018-08-11T01:59:09.516Z,46.41
2018-08-11T02:01:37.178Z,46.56
2018-08-11T02:04:04.823Z,46.11
2018-08-11T02:06:32.481Z,45.95
2018-08-11T02:09:00.142Z,45.90
2018-08-11T02:11:27.797Z,46.60
2018-08-11T02:13:55.420Z,46.73
2018-08-11T02:16:23.073Z,46.62
2018-08-11T02:18:50.704Z,46.33
2018-08-11T02:21:18.341Z,46.66
2018-08-11T02:23:45.977Z,46.71
2018-08-11T02:26:13.645Z,45.95
2018-08-11T02:28:41.293Z,45.79
2018-08-11T02:31:08.953Z,46.69
2018-08-11T02:33:36.613Z,46.39
2018-08-11T02:36:04.279Z,45.94
2018-08-11T02:38:31.901Z,45.85
2018-08-11T02:40:59.520Z,46.28
2018-08-11T02:43:27.254Z,46.39
2018-08-11T02:45:54.906Z,46.71
2018-08-11T02:48:22.560Z,45.87
2018-08-11T02:50:50.199Z,46.56
2018-08-11T02:53:17.844Z,46.02
2018-08-11T02:55:45.476Z,46.65
2018-08-11T02:58:13.152Z,45.88
2018-08-11T03:00:40.795Z,46.16
2018-08-11T03:03:08.433Z,46.67
2018-08-11T03:05:36.070Z,45.96
2018-08-11T03:08:03.720Z,46.01
2018-08-11T03:10:31.464Z,45.95
2018-08-11T03:12:59.109Z,46.77
2018-08-11T03:15:26.731Z,46.31
2018-08-11T03:17:54.385Z,46.66
2018-08-11T03:20:22.068Z,45.94
2018-08-11T03:22:49.733Z,46.70
2018-08-11T03:25:17.398Z,46.80
2018-08-11T03:27:45.032Z,46.84
2018-08-11T03:30:12.670Z,46.79
2018-08-11T03:32:40.302Z,45.97
2018-08-11T03:35:07.946Z,46.66
2018-08-11T03:37:35.581Z,46.65
2018-08-11T03:40:03.251Z,46.09
2018-08-11T03:42:30.884Z,46.85
2018-08-11T03:44:58.522Z,46.84
2018-08-11T03:47:26.188Z,46.09
2018-08-11T03:49:53.821Z,46.79
2018-08-11T03:52:21.480Z,46.01
2018-08-11T03:54:49.249Z,46.10
2018-08-11T03:57:17.097Z,46.69
2018-08-11T03:59:44.725Z,46.21
2018-08-11T04:02:12.369Z,46.20
2018-08-11T04:04:40.022Z,46.06
2018-08-11T04:07:07.962Z,46.37
2018-08-11T04:09:35.606Z,46.02
2018-08-11T04:12:03.212Z,46.61
2018-08-11T04:14:30.837Z,46.12
2018-08-11T04:16:58.482Z,46.87
2018-08-11T04:19:26.158Z,46.09
2018-08-11T04:21:53.804Z,46.48
2018-08-11T04:24:21.432Z,45.94
2018-08-11T04:26:49.063Z,46.25
2018-08-11T04:29:16.694Z,46.03
2018-08-11T04:31:44.321Z,46.45
2018-08-11T04:34:11.978Z,46.10
2018-08-11T04:36:39.600Z,46.05
2018-08-11T04:39:08.009Z,46.26
2018-08-11T04:41:35.698Z,46.21
2018-08-11T04:44:03.358Z,46.50
2018-08-11T04:46:30.993Z,46.31
2018-08-11T04:48:58.638Z,46.24
2018-08-11T04:51:26.281Z,46.10
2018-08-11T04:53:53.959Z,46.77
2018-08-11T04:56:21.589Z,46.87
2018-08-11T04:58:49.248Z,46.14
2018-08-11T05:01:17.030Z,46.05
2018-08-11T05:03:44.658Z,46.92
2018-08-11T05:06:12.285Z,46.33
2018-08-11T05:08:39.929Z,46.57
2018-08-11T05:11:07.608Z,46.87
2018-08-11T05:13:35.385Z,46.77
2018-08-11T05:16:03.028Z,46.89
2018-08-11T05:18:30.656Z,46.66
2018-08-11T05:20:58.333Z,46.15
2018-08-11T05:23:25.961Z,46.87
2018-08-11T05:25:53.606Z,46.06
2018-08-11T05:28:21.245Z,46.04
2018-08-11T05:30:48.877Z,46.50
2018-08-11T05:33:16.535Z,46.92
2018-08-11T05:35:44.208Z,46.27
2018-08-11T05:38:11.829Z,46.80
2018-08-11T05:40:39.446Z,46.94
2018-08-11T05:43:07.081Z,46.88
2018-08-11T05:45:34.716Z,46.12
2018-08-11T05:48:02.344Z,46.11
2018-08-11T05:50:29.960Z,46.06
2018-08-11T05:52:57.591Z,46.04
2018-08-11T05:55:25.213Z,46.13
2018-08-11T05:57:52.857Z,46.80
2018-08-11T06:00:20.543Z,46.81
2018-08-11T06:02:48.176Z,46.19
2018-08-11T06:05:15.801Z,46.11
2018-08-11T06:07:43.446Z,45.94
2018-08-11T06:10:11.069Z,46.62
2018-08-11T06:12:39.137Z,45.91
2018-08-11T06:15:07.414Z,46.73
2018-08-11T06:17:35.053Z,46.74
2018-08-11T06:20:02.837Z,46.10
2018-08-11T06:22:30.477Z,46.54
2018-08-11T06:24:58.206Z,46.30
2018-08-11T06:27:25.827Z,45.94
2018-08-11T06:29:53.466Z,45.82
2018-08-11T06:32:21.118Z,45.74
2018-08-11T06:34:48.753Z,45.78
2018-08-11T06:37:16.380Z,46.52
2018-08-11T06:39:44.043Z,45.70
2018-08-11T06:42:11.685Z,46.43
2018-08-11T06:44:39.339Z,45.87
2018-08-11T06:47:06.979Z,46.55
2018-08-11T06:49:34.607Z,46.59
2018-08-11T06:52:02.266Z,45.82
2018-08-11T06:54:29.896Z,46.14
2018-08-11T06:56:57.542Z,45.98
2018-08-11T06:59:25.166Z,46.58
2018-08-11T07:01:52.807Z,46.69
2018-08-11T07:04:20.436Z,45.91
2018-08-11T07:06:48.087Z,45.82
2018-08-11T07:09:15.716Z,46.61
2018-08-11T07:11:43.337Z,45.85
2018-08-11T07:14:11.029Z,49.78
2018-08-11T07:16:38.671Z,50.75
2018-08-11T07:19:06.565Z,52.09
2018-08-11T07:21:34.189Z,53.06
2018-08-11T07:24:01.857Z,52.56
2018-08-11T07:26:29.504Z,54.40
2018-08-11T07:28:57.193Z,53.64
2018-08-11T07:31:24.824Z,52.42
2018-08-11T07:33:52.442Z,52.86
2018-08-11T07:36:20.252Z,53.77
2018-08-11T07:38:47.817Z,54.28
2018-08-11T07:41:15.498Z,54.41
2018-08-11T07:43:43.129Z,52.13
2018-08-11T07:46:10.765Z,52.03
2018-08-11T07:48:38.436Z,53.29
2018-08-11T07:51:06.386Z,55.11
2018-08-11T07:53:34.035Z,54.75
2018-08-11T07:56:01.796Z,55.73
2018-08-11T07:58:29.345Z,55.57
2018-08-11T08:00:56.975Z,54.91
2018-08-11T08:03:24.599Z,56.63
2018-08-11T08:05:52.263Z,57.60
2018-08-11T08:08:19.980Z,57.62
2018-08-11T08:10:47.619Z,58.53
2018-08-11T08:13:15.258Z,58.83
2018-08-11T08:15:42.898Z,58.58
2018-08-11T08:18:10.536Z,57.71
2018-08-11T08:20:38.196Z,56.89
2018-08-11T08:23:06.174Z,56.54
2018-08-11T08:25:33.870Z,56.50
2018-08-11T08:28:01.497Z,57.14
2018-08-11T08:30:29.140Z,56.86
2018-08-11T08:32:56.782Z,56.18
2018-08-11T08:35:24.408Z,55.34
2018-08-11T08:37:52.032Z,56.42
2018-08-11T08:40:19.665Z,54.90
2018-08-11T08:42:47.306Z,54.54
2018-08-11T08:45:14.970Z,55.50
2018-08-11T08:47:42.621Z,58.38
2018-08-11T08:50:10.252Z,55.87
2018-08-11T08:52:37.916Z,56.83
2018-08-11T08:55:05.637Z,56.35
2018-08-11T08:57:33.304Z,54.82
2018-08-11T09:00:00.950Z,56.17
2018-08-11T09:02:28.650Z,54.47
2018-08-11T09:04:56.379Z,54.50
2018-08-11T09:07:23.935Z,53.82
2018-08-11T09:09:51.639Z,53.35
2018-08-11T09:12:19.291Z,52.07
2018-08-11T09:14:46.938Z,50.91
2018-08-11T09:17:14.593Z,50.56
2018-08-11T09:19:42.220Z,51.27
2018-08-11T09:22:09.906Z,49.52
2018-08-11T09:24:37.545Z,50.72
2018-08-11T09:27:05.193Z,48.73
2018-08-11T09:29:32.821Z,49.17
2018-08-11T09:32:00.500Z,49.75
2018-08-11T09:34:28.117Z,48.33
2018-08-11T09:36:55.744Z,46.81
2018-08-11T09:39:23.510Z,46.14
2018-08-11T09:41:51.249Z,46.47
2018-08-11T09:44:19.407Z,46.42
2018-08-11T09:46:47.512Z,45.78
2018-08-11T09:49:15.601Z,46.18
2018-08-11T09:51:43.644Z,46.54
2018-08-11T09:54:11.743Z,46.70
2018-08-11T09:56:40.391Z,46.26
2018-08-11T09:59:08.587Z,46.84
2018-08-11T10:01:41.915Z,47.01
2018-08-11T10:04:09.912Z,46.31
2018-08-11T10:06:37.880Z,46.38
2018-08-11T10:09:07.321Z,47.13
2018-08-11T10:11:35.359Z,47.39
2018-08-11T10:14:03.295Z,46.45
2018-08-11T10:16:31.293Z,47.40
2018-08-11T10:18:59.257Z,46.68
2018-08-11T10:21:26.901Z,46.83
2018-08-11T10:23:54.576Z,46.77
2018-08-11T10:26:22.249Z,46.99
2018-08-11T10:28:49.962Z,46.96
2018-08-11T10:31:17.623Z,46.80
2018-08-11T10:33:45.278Z,46.85
2018-08-11T10:36:13.026Z,46.86
2018-08-11T10:38:40.691Z,47.38
2018-08-11T10:41:08.381Z,47.42
2018-08-11T10:43:36.085Z,47.01
2018-08-11T10:46:03.793Z,47.57
2018-08-11T10:48:31.584Z,47.74
2018-08-11T10:50:59.264Z,47.85
2018-08-11T10:53:26.901Z,47.08
2018-08-11T10:55:54.622Z,47.14
2018-08-11T10:58:22.348Z,47.21
2018-08-11T11:00:50.053Z,47.95
2018-08-11T11:03:17.717Z,47.26
2018-08-11T11:05:45.370Z,48.01
2018-08-11T11:08:13.093Z,47.56
2018-08-11T11:10:40.707Z,47.41
2018-08-11T11:13:08.421Z,47.72
2018-08-11T11:15:36.062Z,47.66
2018-08-11T11:18:03.793Z,47.31
2018-08-11T11:20:31.522Z,48.11
2018-08-11T11:22:59.180Z,48.21
2018-08-11T11:25:26.899Z,47.51
2018-08-11T11:27:54.554Z,47.65
2018-08-11T11:30:22.217Z,47.98
2018-08-11T11:32:49.933Z,48.31
2018-08-11T11:35:17.585Z,48.17
2018-08-11T11:37:45.309Z,47.79
2018-08-11T11:40:13.115Z,48.06
2018-08-11T11:42:40.872Z,47.58
2018-08-11T11:45:08.557Z,47.49
2018-08-11T11:47:36.240Z,47.73
2018-08-11T11:50:03.892Z,48.46
2018-08-11T11:52:31.632Z,48.44
2018-08-11T11:54:59.352Z,48.43
2018-08-11T11:57:27.061Z,47.85
2018-08-11T11:59:54.851Z,48.02
2018-08-11T12:02:22.614Z,47.78
2018-08-11T12:04:50.317Z,48.39
2018-08-11T12:07:17.993Z,47.74
2018-08-11T12:09:45.646Z,48.10
2018-08-11T12:12:13.363Z,47.70
2018-08-11T12:14:41.080Z,48.60
2018-08-11T12:17:08.761Z,48.44
2018-08-11T12:19:36.420Z,48.31
2018-08-11T12:22:04.085Z,47.82
2018-08-11T12:24:31.813Z,48.50
2018-08-11T12:26:59.493Z,47.63
2018-08-11T12:29:27.196Z,47.64
2018-08-11T12:31:54.848Z,47.67
2018-08-11T12:34:22.657Z,48.45
2018-08-11T12:36:50.341Z,48.30
2018-08-11T12:39:18.040Z,47.58
2018-08-11T12:41:45.748Z,48.33
2018-08-11T12:44:13.430Z,47.71
2018-08-11T12:46:41.169Z,48.35
2018-08-11T12:49:08.872Z,47.63
2018-08-11T12:51:36.981Z,47.54
2018-08-11T12:54:04.642Z,48.36
2018-08-11T12:56:32.382Z,47.66
2018-08-11T12:59:00.123Z,47.57
2018-08-11T13:01:27.860Z,48.23
2018-08-11T13:03:55.573Z,47.65
2018-08-11T13:06:23.342Z,48.14
2018-08-11T13:08:50.986Z,47.56
2018-08-11T13:11:18.796Z,47.42
2018-08-11T13:13:46.496Z,47.73
2018-08-11T13:18:48.062Z,47.40
2018-08-11T13:21:15.738Z,47.78
2018-08-11T13:23:43.449Z,48.15
2018-08-11T13:26:11.128Z,48.29
2018-08-11T13:28:38.857Z,48.21
2018-08-11T13:31:06.763Z,47.38
2018-08-11T13:33:34.455Z,48.14
2018-08-11T13:36:02.212Z,47.35
2018-08-11T13:38:29.883Z,47.64
2018-08-11T13:40:57.534Z,47.38
2018-08-11T13:43:25.219Z,47.38
2018-08-11T13:45:52.878Z,48.15
2018-08-11T13:48:20.584Z,48.10
2018-08-11T13:50:48.453Z,47.39
2018-08-11T13:53:16.178Z,48.22
2018-08-11T13:55:43.830Z,47.46
2018-08-11T13:58:11.629Z,47.96
2018-08-11T14:00:39.365Z,47.49
2018-08-11T14:03:07.066Z,48.12
2018-08-11T14:05:34.770Z,47.41
2018-08-11T14:08:02.550Z,47.32
2018-08-11T14:10:30.234Z,47.44
2018-08-11T14:12:57.916Z,47.31
2018-08-11T14:15:25.589Z,47.56
2018-08-11T14:17:53.319Z,48.02
2018-08-11T14:20:21.150Z,48.03
2018-08-11T14:22:48.802Z,47.24
2018-08-11T14:25:16.492Z,47.66
2018-08-11T14:27:44.202Z,48.03
2018-08-11T14:30:12.480Z,47.29
2018-08-11T14:32:40.617Z,48.11
2018-08-11T14:35:08.259Z,47.73
2018-08-11T14:37:35.975Z,47.75
2018-08-11T14:40:03.740Z,48.10
2018-08-11T14:42:31.420Z,47.46
2018-08-11T14:44:59.116Z,47.22
2018-08-11T14:47:26.863Z,47.22
2018-08-11T14:49:54.547Z,47.15
2018-08-11T14:52:22.186Z,47.68
2018-08-11T14:54:49.828Z,47.20
2018-08-11T14:57:17.582Z,47.13
2018-08-11T14:59:45.241Z,47.84
2018-08-11T15:02:12.896Z,47.88
2018-08-11T15:04:40.577Z,47.82
2018-08-11T15:07:08.269Z,47.95
2018-08-11T15:09:35.933Z,47.19
2018-08-11T15:12:03.622Z,47.06
2018-08-11T15:14:31.319Z,47.44
2018-08-11T15:16:59.005Z,47.91
2018-08-11T15:19:26.674Z,47.45
2018-08-11T15:21:54.444Z,47.19
2018-08-11T15:24:22.243Z,47.52
2018-08-11T15:26:49.884Z,47.06
2018-08-11T15:29:17.553Z,47.60
2018-08-11T15:31:45.328Z,47.04
2018-08-11T15:34:13.132Z,47.02
2018-08-11T15:36:41.001Z,46.96
2018-08-11T15:39:09.841Z,47.86
2018-08-11T15:41:37.693Z,46.94
2018-08-11T15:44:05.710Z,47.75
2018-08-11T15:46:33.464Z,47.77
2018-08-11T15:49:01.204Z,47.75
2018-08-11T15:51:28.964Z,46.84
2018-08-11T15:53:56.693Z,47.54
2018-08-11T15:56:24.444Z,47.69
2018-08-11T15:58:52.276Z,47.58
2018-08-11T16:01:20.034Z,47.58
2018-08-11T16:03:47.838Z,47.51
2018-08-11T16:06:15.614Z,47.53
2018-08-11T16:08:43.311Z,46.90
2018-08-11T16:11:11.049Z,46.74
2018-08-11T16:13:38.810Z,46.70
2018-08-11T16:16:06.515Z,47.55
2018-08-11T16:18:34.316Z,47.45
2018-08-11T16:21:02.002Z,46.82
2018-08-11T16:23:29.710Z,47.02
2018-08-11T16:25:57.476Z,46.70
2018-08-11T16:28:25.300Z,46.79
2018-08-11T16:30:53.205Z,47.47
2018-08-11T16:33:20.946Z,47.61
2018-08-11T16:35:48.614Z,46.97
2018-08-11T16:38:16.350Z,46.67
2018-08-11T16:40:44.085Z,47.46
2018-08-11T16:43:11.801Z,46.90
2018-08-11T16:45:39.535Z,46.81
2018-08-11T16:48:07.269Z,46.71
2018-08-11T16:50:34.972Z,47.61
2018-08-11T16:53:02.649Z,46.76
2018-08-11T16:55:30.521Z,47.41
2018-08-11T16:57:58.289Z,46.66
2018-08-11T17:00:26.053Z,46.65
2018-08-11T17:02:53.826Z,46.89
2018-08-11T17:05:21.538Z,46.68
2018-08-11T17:07:49.186Z,46.68
2018-08-11T17:10:16.829Z,47.16
2018-08-11T17:12:44.465Z,46.74
2018-08-11T17:15:12.141Z,47.55
2018-08-11T17:17:39.811Z,47.33
2018-08-11T17:20:07.939Z,47.09
2018-08-11T17:22:35.591Z,47.47
2018-08-11T17:25:03.308Z,46.79
2018-08-11T17:27:30.931Z,47.48
2018-08-11T17:29:58.602Z,47.07
2018-08-11T17:32:26.309Z,46.73
2018-08-11T17:34:53.929Z,46.69
2018-08-11T17:37:21.561Z,46.93
2018-08-11T17:39:49.197Z,47.03
2018-08-11T17:42:16.829Z,46.79
2018-08-11T17:44:44.464Z,46.73
2018-08-11T17:47:12.128Z,47.22
2018-08-11T17:49:39.823Z,46.95
2018-08-11T17:52:07.460Z,46.97
2018-08-11T17:54:35.280Z,46.98
2018-08-11T17:57:02.932Z,46.79
2018-08-11T17:59:30.564Z,47.69
2018-08-11T18:01:58.241Z,47.52
2018-08-11T18:04:25.902Z,47.53
2018-08-11T18:06:53.612Z,47.47
2018-08-11T18:09:21.218Z,46.91
2018-08-11T18:11:48.845Z,47.56
2018-08-11T18:14:16.510Z,47.52
2018-08-11T18:16:44.163Z,46.86
2018-08-11T18:19:11.823Z,46.76
2018-08-11T18:21:39.510Z,46.75
2018-08-11T18:24:07.447Z,47.45
2018-08-11T18:26:35.080Z,47.56
2018-08-11T18:29:02.727Z,47.63
2018-08-11T18:31:30.413Z,46.95
2018-08-11T18:33:58.070Z,46.85
2018-08-11T18:36:25.730Z,47.70
2018-08-11T18:38:53.405Z,47.24
2018-08-11T18:41:21.052Z,47.50
2018-08-11T18:43:48.745Z,47.70
2018-08-11T18:46:16.386Z,47.02
2018-08-11T18:48:44.020Z,47.56
2018-08-11T18:51:11.674Z,47.28
2018-08-11T18:53:39.336Z,47.05
2018-08-11T18:56:07.073Z,47.83
2018-08-11T18:58:34.767Z,47.55
2018-08-11T19:01:02.583Z,47.30
2018-08-11T19:03:30.280Z,47.82
2018-08-11T19:05:57.905Z,47.15
2018-08-11T19:08:25.530Z,47.05
2018-08-11T19:10:53.257Z,47.36
2018-08-11T19:13:20.914Z,47.76
2018-08-11T19:15:48.565Z,47.69
2018-08-11T19:18:16.194Z,47.00
2018-08-11T19:20:43.848Z,46.94
2018-08-11T19:23:11.474Z,47.79
2018-08-11T19:25:39.245Z,47.21
2018-08-11T19:28:06.826Z,47.31
2018-08-11T19:30:34.457Z,47.01
2018-08-11T19:33:02.122Z,47.09
2018-08-11T19:35:29.768Z,47.75
2018-08-11T19:37:57.389Z,46.99
2018-08-11T19:40:25.015Z,46.97
2018-08-11T19:42:52.679Z,47.08
2018-08-11T19:45:20.371Z,46.94
2018-08-11T19:47:48.011Z,46.94
2018-08-11T19:50:15.803Z,47.59
2018-08-11T19:52:43.829Z,47.75
2018-08-11T19:55:12.749Z,46.94
2018-08-11T19:57:40.566Z,47.75
2018-08-11T20:00:09.621Z,47.68
2018-08-11T20:02:37.410Z,47.03
2018-08-11T20:05:05.477Z,46.92
2018-08-11T20:07:33.270Z,46.88
2018-08-11T20:10:01.024Z,46.75
2018-08-11T20:12:28.793Z,46.88
2018-08-11T20:14:56.562Z,46.80
2018-08-11T20:17:24.329Z,47.61
2018-08-11T20:19:52.058Z,47.27
2018-08-11T20:22:19.841Z,46.68
2018-08-11T20:24:47.953Z,46.69
2018-08-11T20:27:16.289Z,47.55
2018-08-11T20:29:44.171Z,47.31
2018-08-11T20:32:13.465Z,47.11
2018-08-11T20:34:41.768Z,46.88
2018-08-11T20:37:10.075Z,47.38
2018-08-11T20:39:37.953Z,46.75
2018-08-11T20:42:05.822Z,46.76
2018-08-11T20:44:33.551Z,46.64
2018-08-11T20:47:01.361Z,47.50
2018-08-11T20:49:29.617Z,46.75
2018-08-11T20:51:57.376Z,46.60
2018-08-11T20:54:25.323Z,46.70
2018-08-11T20:56:53.371Z,47.40
2018-08-11T20:59:21.159Z,47.38
2018-08-11T21:01:49.247Z,47.27
2018-08-11T21:04:17.006Z,46.71
2018-08-11T21:06:45.084Z,46.65
2018-08-11T21:09:13.670Z,46.72
2018-08-11T21:11:41.605Z,46.64
2018-08-11T21:14:10.472Z,46.64
2018-08-11T21:16:38.161Z,46.93
2018-08-11T21:19:06.211Z,47.22
2018-08-11T21:21:34.298Z,46.58
2018-08-11T21:24:02.497Z,46.61
2018-08-11T21:26:30.221Z,46.86
2018-08-11T21:28:57.974Z,46.73
2018-08-11T21:31:25.609Z,46.61
2018-08-11T21:33:53.286Z,46.62
2018-08-11T21:36:21.137Z,46.61
2018-08-11T21:38:48.852Z,46.66
2018-08-11T21:41:17.533Z,47.86
2018-08-11T21:43:46.112Z,46.64
2018-08-11T21:46:13.791Z,46.68
2018-08-11T21:48:41.478Z,47.39
2018-08-11T21:51:09.201Z,46.59
2018-08-11T21:53:37.028Z,46.67
2018-08-11T21:56:04.734Z,46.62
2018-08-11T21:58:32.423Z,47.49
2018-08-11T22:01:11.596Z,47.48
2018-08-11T22:03:39.639Z,47.47
2018-08-11T22:06:07.470Z,46.72
2018-08-11T22:08:35.256Z,47.48
2018-08-11T22:11:02.937Z,46.71
2018-08-11T22:13:30.655Z,46.65
2018-08-11T22:15:58.290Z,47.22
2018-08-11T22:18:25.988Z,46.68
2018-08-11T22:20:53.641Z,46.65
2018-08-11T22:23:21.298Z,47.27
2018-08-11T22:25:49.014Z,46.89
2018-08-11T22:28:16.700Z,47.12
2018-08-11T22:30:44.378Z,47.44
2018-08-11T22:33:12.092Z,46.76
2018-08-11T22:35:39.824Z,46.77
2018-08-11T22:38:07.440Z,46.96
2018-08-11T22:40:35.080Z,46.67
2018-08-11T22:43:02.757Z,46.96
2018-08-11T22:45:30.410Z,47.41
2018-08-11T22:47:58.065Z,47.40
2018-08-11T22:50:25.810Z,46.85
2018-08-11T22:52:53.550Z,47.11
2018-08-11T22:55:21.188Z,47.07
2018-08-11T22:57:49.013Z,47.02
2018-08-11T23:00:18.396Z,46.72
2018-08-11T23:02:46.183Z,47.42
2018-08-11T23:05:14.256Z,47.36
2018-08-11T23:07:42.170Z,46.70
2018-08-11T23:10:11.665Z,47.49
2018-08-11T23:12:39.775Z,46.71
2018-08-11T23:15:09.068Z,47.50
2018-08-11T23:17:36.709Z,46.82
2018-08-11T23:20:04.953Z,47.58
2018-08-11T23:22:32.634Z,47.53
2018-08-11T23:25:00.325Z,47.06
2018-08-11T23:27:27.984Z,46.99
2018-08-11T23:29:55.745Z,47.43
2018-08-11T23:32:23.444Z,47.53
2018-08-11T23:34:51.100Z,47.46
2018-08-11T23:37:18.794Z,47.06
2018-08-11T23:39:46.558Z,47.52
2018-08-11T23:42:14.218Z,47.54
2018-08-11T23:44:41.898Z,47.54
2018-08-11T23:47:09.690Z,47.44
2018-08-11T23:49:37.349Z,47.17
2018-08-11T23:52:05.062Z,47.54
2018-08-11T23:54:32.747Z,46.77
2018-08-11T23:57:00.434Z,47.49
2018-08-11T23:59:28.100Z,46.71
